Terminal Aerodrome Forecast
Issued by NWS

Home | Current Version | Previous Version | Text Only | Print | Product List | Glossary On
Versions: 1 2 3 4 5 6 7 8 9 10 11 12 13
000
FTUS45 KRIW 232300
TAFBPI
TAF
KBPI 232328Z 2400/2424 34007KT P6SM SCT070
     FM240400 33006KT P6SM SKC
     FM240900 VRB05KT P6SM VCFG FEW005 SCT100
     FM241700 33008KT P6SM VCSH SCT030 BKN050=

USA.gov is the U.S. government's official web portal to all federal, state and local government web resources and services.